KAPF/APF METAR and TAF weather

Enter ICAO airport designator
Station Type Date Time Source
KAPF METAR 2018/01/16 08:53 UTC NOAA

KAPF 160853Z AUTO 04006KT 10SM CLR 12/10 A3026 RMK AO2 SLP245 T01220100 55003 $


Station Type Date Time Source
KAPF Decoded METAR 2018/01/16 08:53 UTC NOAA

NAPLES MUNICIPAL AIRPORT, FL, United States (KAPF) 26-09N 081-46W
Jan 16, 2018 - 03:53 AM EST / 2018.01.16 0853 UTC
Wind: from the NE (040 degrees) at 7 MPH (6 KT):0
Visibility: 10 mile(s):0
Sky conditions: clear
Temperature: 54.0 F (12.2 C)
Dew Point: 50.0 F (10.0 C)
Relative Humidity: 86%
Pressure (altimeter): 30.26 in. Hg (1024 hPa)
Pressure tendency: 0.01 inches (0.3 hPa) lower than three hours ago
ob: KAPF 160853Z AUTO 04006KT 10SM CLR 12/10 A3026 RMK AO2 SLP245 T01220100 55003
cycle: 9

Station Type Date Time Source
KAPF TAF 2018/01/16 09:57 UTC NOAA

TAF
AMD KAPF 160855Z 1609/1706 04006KT P6SM SKC
FM161500 04010KT P6SM SCT040
FM170100 04005KT P6SM SKC


Example: see airport list